createdAt,value
2018-12-07T00:02:06.597Z,4.05
2018-12-07T00:04:35.063Z,4.30
2018-12-07T00:07:03.950Z,3.90
2018-12-07T00:09:34.926Z,5.03
2018-12-07T00:12:03.473Z,4.03
2018-12-07T00:14:32.266Z,4.65
2018-12-07T00:17:01.057Z,4.95
2018-12-07T00:19:29.591Z,4.30
2018-12-07T00:21:58.644Z,5.17
2018-12-07T00:24:27.074Z,5.17
2018-12-07T00:26:55.606Z,4.85
2018-12-07T00:29:24.639Z,4.75
2018-12-07T00:31:54.592Z,5.22
2018-12-07T00:34:23.513Z,4.37
2018-12-07T00:36:53.545Z,5.33
2018-12-07T00:39:21.994Z,4.60
2018-12-07T00:41:50.584Z,6.67
2018-12-07T00:44:19.022Z,6.33
2018-12-07T00:46:47.833Z,5.95
2018-12-07T00:49:16.853Z,6.80
2018-12-07T00:51:45.286Z,6.53
2018-12-07T00:54:14.336Z,6.60
2018-12-07T00:56:43.285Z,7.55
2018-12-07T00:59:11.859Z,5.97
2018-12-07T01:01:40.649Z,7.33
2018-12-07T01:04:10.090Z,8.18
2018-12-07T01:06:38.843Z,6.95
2018-12-07T01:09:08.925Z,8.98
2018-12-07T01:11:37.667Z,8.18
2018-12-07T01:14:06.624Z,7.97
2018-12-07T01:16:35.085Z,9.28
2018-12-07T01:19:17.966Z,8.75
2018-12-07T01:21:46.412Z,10.68
2018-12-07T01:24:15.328Z,10.28
2018-12-07T01:26:43.852Z,9.25
2018-12-07T01:29:12.645Z,9.80
2018-12-07T01:31:41.099Z,10.50
2018-12-07T01:34:09.931Z,10.15
2018-12-07T01:36:38.666Z,11.28
2018-12-07T01:39:07.686Z,10.75
2018-12-07T01:41:36.638Z,11.10
2018-12-07T01:44:05.082Z,11.18
2018-12-07T01:46:34.130Z,11.83
2018-12-07T01:49:03.654Z,10.40
2018-12-07T01:51:32.132Z,11.08
2018-12-07T01:54:00.579Z,10.82
2018-12-07T01:56:29.209Z,11.50
2018-12-07T01:58:58.298Z,12.88
2018-12-07T02:01:27.112Z,11.35
2018-12-07T02:03:56.254Z,11.30
2018-12-07T02:06:25.230Z,10.80
2018-12-07T02:08:53.825Z,10.13
2018-12-07T02:11:22.601Z,10.50
2018-12-07T02:13:51.027Z,11.45
2018-12-07T02:16:19.839Z,9.98
2018-12-07T02:18:49.237Z,9.20
2018-12-07T02:21:17.758Z,8.80
2018-12-07T02:23:46.807Z,9.15
2018-12-07T02:26:15.286Z,8.38
2018-12-07T02:28:43.814Z,9.88
2018-12-07T02:31:12.320Z,8.53
2018-12-07T02:33:41.167Z,7.72
2018-12-07T02:36:09.555Z,8.03
2018-12-07T02:38:37.955Z,9.25
2018-12-07T02:41:06.808Z,8.00
2018-12-07T02:43:35.314Z,8.30
2018-12-07T02:46:04.726Z,9.60
2018-12-07T02:48:33.490Z,9.00
2018-12-07T02:51:02.040Z,7.70
2018-12-07T02:53:30.646Z,8.70
2018-12-07T02:55:59.202Z,9.83
2018-12-07T02:58:27.638Z,8.20
2018-12-07T03:00:56.848Z,8.43
2018-12-07T03:03:25.334Z,9.38
2018-12-07T03:05:53.863Z,7.70
2018-12-07T03:08:22.309Z,9.33
2018-12-07T03:10:50.911Z,8.28
2018-12-07T03:13:21.265Z,8.00
2018-12-07T03:15:50.874Z,8.45
2018-12-07T03:18:33.293Z,7.58
2018-12-07T03:21:02.074Z,7.67
2018-12-07T03:23:31.793Z,7.25
2018-12-07T03:26:00.789Z,7.83
2018-12-07T03:28:30.166Z,7.90
2018-12-07T03:30:59.409Z,6.55
2018-12-07T03:33:28.799Z,6.70
2018-12-07T03:35:58.548Z,7.08
2018-12-07T03:38:27.118Z,6.30
2018-12-07T03:40:56.382Z,7.00
2018-12-07T03:43:25.282Z,6.90
2018-12-07T03:45:56.743Z,7.22
2018-12-07T03:48:25.185Z,6.10
2018-12-07T03:50:53.997Z,5.97
2018-12-07T03:53:22.563Z,5.35
2018-12-07T03:55:51.092Z,6.87
2018-12-07T03:58:19.872Z,5.83
2018-12-07T04:00:49.692Z,5.83
2018-12-07T04:03:18.676Z,5.87
2018-12-07T04:05:47.556Z,5.03
2018-12-07T04:08:16.003Z,5.62
2018-12-07T04:10:44.513Z,6.00
2018-12-07T04:13:13.818Z,6.45
2018-12-07T04:15:42.718Z,7.10
2018-12-07T04:18:14.260Z,6.12
2018-12-07T04:20:42.984Z,5.10
2018-12-07T04:23:11.621Z,7.03
2018-12-07T04:25:40.007Z,6.33
2018-12-07T04:28:08.927Z,5.35
2018-12-07T04:30:37.586Z,5.80
2018-12-07T04:33:06.125Z,5.15
2018-12-07T04:35:34.595Z,4.80
2018-12-07T04:38:03.120Z,4.67
2018-12-07T04:40:31.647Z,5.50
2018-12-07T04:43:00.669Z,5.60
2018-12-07T04:45:29.026Z,5.17
2018-12-07T04:47:57.478Z,5.85
2018-12-07T04:50:26.318Z,4.87
2018-12-07T04:52:54.751Z,6.35
2018-12-07T04:55:23.289Z,5.87
2018-12-07T04:57:52.573Z,6.70
2018-12-07T05:00:21.153Z,5.80
2018-12-07T05:02:50.085Z,5.83
2018-12-07T05:05:18.926Z,5.42
2018-12-07T05:07:47.505Z,6.87
2018-12-07T05:10:15.976Z,6.95
2018-12-07T05:12:44.544Z,7.83
2018-12-07T05:15:13.873Z,6.75
2018-12-07T05:17:43.286Z,7.08
2018-12-07T05:20:12.515Z,6.87
2018-12-07T05:22:41.038Z,6.87
2018-12-07T05:25:09.474Z,8.70
2018-12-07T05:27:39.430Z,8.43
2018-12-07T05:30:09.203Z,8.00
2018-12-07T05:32:38.192Z,8.15
2018-12-07T05:35:06.704Z,9.13
2018-12-07T05:37:35.357Z,8.53
2018-12-07T05:40:04.646Z,6.83
2018-12-07T05:42:33.135Z,7.55
2018-12-07T05:45:02.282Z,6.75
2018-12-07T05:47:31.097Z,7.70
2018-12-07T05:49:59.648Z,7.08
2018-12-07T05:52:28.056Z,6.12
2018-12-07T05:54:56.473Z,7.83
2018-12-07T05:57:24.978Z,8.43
2018-12-07T05:59:53.909Z,7.50
2018-12-07T06:02:23.122Z,7.95
2018-12-07T06:04:51.702Z,8.95
2018-12-07T06:07:20.151Z,8.45
2018-12-07T06:09:49.897Z,10.53
2018-12-07T06:12:19.008Z,8.10
2018-12-07T06:14:47.579Z,9.60
2018-12-07T06:17:16.467Z,9.60
2018-12-07T06:19:45.104Z,9.08
2018-12-07T06:22:13.583Z,8.60
2018-12-07T06:24:42.457Z,9.20
2018-12-07T06:27:10.831Z,10.72
2018-12-07T06:29:39.569Z,9.05
2018-12-07T06:32:08.172Z,10.08
2018-12-07T06:34:36.757Z,10.50
2018-12-07T06:37:05.288Z,11.90
2018-12-07T06:39:33.886Z,11.83
2018-12-07T06:42:02.491Z,10.35
2018-12-07T06:44:31.001Z,10.38
2018-12-07T06:46:59.826Z,11.10
2018-12-07T06:49:28.973Z,10.40
2018-12-07T06:51:57.402Z,11.45
2018-12-07T06:54:25.926Z,11.45
2018-12-07T06:56:55.395Z,11.18
2018-12-07T06:59:23.952Z,11.73
2018-12-07T07:01:52.495Z,13.00
2018-12-07T07:04:21.087Z,12.25
2018-12-07T07:06:49.527Z,10.85
2018-12-07T07:09:19.529Z,11.73
2018-12-07T07:11:48.135Z,11.35
2018-12-07T07:14:16.565Z,11.93
2018-12-07T07:16:45.064Z,11.73
2018-12-07T07:19:13.681Z,11.90
2018-12-07T07:21:42.394Z,11.78
2018-12-07T07:24:10.970Z,11.00
2018-12-07T07:26:39.481Z,11.60
2018-12-07T07:29:07.967Z,12.10
2018-12-07T07:31:43.224Z,10.65
2018-12-07T07:34:07.220Z,12.30
2018-12-07T07:36:35.772Z,11.78
2018-12-07T07:39:06.678Z,12.45
2018-12-07T07:41:35.324Z,13.95
2018-12-07T07:44:10.561Z,14.30
2018-12-07T07:46:39.220Z,15.05
2018-12-07T07:49:07.870Z,17.35
2018-12-07T07:51:36.444Z,16.10
2018-12-07T07:54:05.165Z,15.98
2018-12-07T07:56:34.665Z,14.55
2018-12-07T07:59:03.421Z,16.10
2018-12-07T08:01:32.343Z,13.25
2018-12-07T08:04:00.945Z,14.63
2018-12-07T08:06:29.676Z,15.83
2018-12-07T08:08:58.165Z,17.73
2018-12-07T08:11:26.815Z,13.72
2018-12-07T08:13:55.454Z,15.08
2018-12-07T08:16:24.080Z,16.07
2018-12-07T08:18:53.116Z,14.90
2018-12-07T08:21:21.645Z,13.98
2018-12-07T08:23:50.263Z,14.10
2018-12-07T08:26:18.883Z,12.47
2018-12-07T08:28:47.826Z,11.57
2018-12-07T08:31:16.382Z,12.23
2018-12-07T08:33:44.927Z,11.85
2018-12-07T08:36:14.011Z,11.45
2018-12-07T08:38:42.379Z,12.00
2018-12-07T08:41:11.145Z,12.45
2018-12-07T08:43:39.568Z,12.33
2018-12-07T08:46:08.219Z,13.40
2018-12-07T08:48:36.668Z,13.10
2018-12-07T08:51:05.366Z,14.98
2018-12-07T08:53:33.941Z,12.37
2018-12-07T08:56:03.184Z,13.32
2018-12-07T08:58:31.793Z,13.18
2018-12-07T09:01:00.783Z,9.95
2018-12-07T09:03:29.363Z,11.18
2018-12-07T09:05:58.109Z,10.82
2018-12-07T09:08:26.723Z,10.63
2018-12-07T09:10:55.724Z,11.10
2018-12-07T09:13:24.618Z,9.73
2018-12-07T09:15:53.153Z,9.03
2018-12-07T09:18:21.575Z,9.15
2018-12-07T09:20:53.944Z,9.23
2018-12-07T09:23:20.445Z,9.40
2018-12-07T09:25:49.163Z,8.85
2018-12-07T09:28:17.674Z,9.63
2018-12-07T09:30:46.540Z,9.13
2018-12-07T09:33:15.042Z,7.75
2018-12-07T09:35:43.570Z,9.00
2018-12-07T09:38:13.259Z,9.05
2018-12-07T09:40:42.377Z,10.23
2018-12-07T09:43:10.902Z,8.75
2018-12-07T09:45:39.547Z,8.00
2018-12-07T09:48:08.034Z,8.60
2018-12-07T09:50:36.545Z,8.65
2018-12-07T09:53:05.208Z,7.67
2018-12-07T09:55:33.792Z,8.73
2018-12-07T09:58:02.191Z,9.10
2018-12-07T10:00:30.568Z,9.10
2018-12-07T10:02:59.433Z,8.25
2018-12-07T10:05:28.097Z,8.18
2018-12-07T10:07:57.229Z,8.88
2018-12-07T10:10:25.627Z,8.90
2018-12-07T10:12:54.165Z,7.75
2018-12-07T10:15:22.780Z,7.75
2018-12-07T10:17:51.735Z,6.72
2018-12-07T10:20:20.529Z,7.05
2018-12-07T10:22:49.885Z,7.85
2018-12-07T10:25:18.435Z,7.10
2018-12-07T10:27:47.061Z,7.37
2018-12-07T10:30:15.921Z,6.10
2018-12-07T10:32:44.934Z,6.75
2018-12-07T10:35:13.494Z,7.03
2018-12-07T10:37:41.877Z,6.75
2018-12-07T10:40:10.353Z,6.78
2018-12-07T10:42:39.149Z,6.15
2018-12-07T10:45:08.266Z,5.53
2018-12-07T10:47:36.877Z,6.97
2018-12-07T10:50:09.795Z,5.60
2018-12-07T10:52:38.225Z,6.40
2018-12-07T10:55:08.076Z,5.97
2018-12-07T10:57:37.573Z,5.30
2018-12-07T11:00:08.908Z,6.12
2018-12-07T11:02:57.819Z,6.60
2018-12-07T11:05:31.764Z,5.80
2018-12-07T11:08:05.539Z,5.80
2018-12-07T11:10:39.533Z,5.30
2018-12-07T11:13:13.630Z,5.67
2018-12-07T11:15:47.769Z,5.08
2018-12-07T11:18:21.426Z,5.17
2018-12-07T11:20:55.773Z,4.75
2018-12-07T11:23:29.798Z,4.30
2018-12-07T11:26:03.731Z,4.50
2018-12-07T11:28:37.551Z,4.05
2018-12-07T11:31:11.450Z,3.67
2018-12-07T11:33:46.440Z,3.67
2018-12-07T11:36:15.382Z,3.72
2018-12-07T11:38:45.094Z,3.70
2018-12-07T11:41:13.596Z,3.35
2018-12-07T11:43:41.989Z,3.40
2018-12-07T11:46:10.455Z,2.75
2018-12-07T11:48:45.557Z,3.40
2018-12-07T11:51:14.580Z,2.65
2018-12-07T11:53:43.489Z,3.17
2018-12-07T11:56:12.179Z,3.77
2018-12-07T11:58:41.014Z,3.20
2018-12-07T12:01:09.908Z,2.90
2018-12-07T12:03:39.037Z,2.80
2018-12-07T12:06:07.659Z,3.20
2018-12-07T12:08:36.993Z,3.00
2018-12-07T12:11:05.977Z,2.83
2018-12-07T12:13:34.970Z,2.67
2018-12-07T12:16:06.105Z,2.90
2018-12-07T12:18:38.655Z,2.95
2018-12-07T12:21:07.499Z,3.22
2018-12-07T12:23:36.517Z,3.50
2018-12-07T12:26:05.427Z,3.50
2018-12-07T12:28:33.895Z,4.03
2018-12-07T12:31:02.409Z,3.62
2018-12-07T12:33:31.466Z,3.55
2018-12-07T12:36:00.532Z,3.67
2018-12-07T12:38:29.718Z,3.67
2018-12-07T12:40:58.321Z,3.60
2018-12-07T12:43:27.157Z,3.00
2018-12-07T12:45:56.086Z,3.17
2018-12-07T12:48:24.595Z,3.15
2018-12-07T12:50:55.130Z,3.12
2018-12-07T12:53:23.651Z,2.45
2018-12-07T12:55:52.747Z,2.67
2018-12-07T12:58:21.294Z,2.67
2018-12-07T13:00:50.162Z,2.00
2018-12-07T13:03:18.682Z,2.22
2018-12-07T13:05:47.154Z,2.60
2018-12-07T13:08:15.801Z,2.40
2018-12-07T13:10:44.514Z,2.20
2018-12-07T13:13:13.312Z,2.40
2018-12-07T13:15:41.849Z,1.65
2018-12-07T13:18:12.971Z,2.10
2018-12-07T13:20:42.386Z,1.52
2018-12-07T13:23:10.955Z,1.80
2018-12-07T13:25:39.400Z,1.62
2018-12-07T13:28:07.816Z,1.77
2018-12-07T13:30:36.295Z,1.60
2018-12-07T13:33:05.440Z,2.12
2018-12-07T13:35:34.210Z,2.50
2018-12-07T13:38:03.225Z,2.55
2018-12-07T13:40:31.722Z,3.10
2018-12-07T13:43:00.545Z,3.27
2018-12-07T13:45:29.732Z,2.87
2018-12-07T13:47:59.927Z,2.17
2018-12-07T13:50:34.735Z,2.95
2018-12-07T13:53:03.541Z,3.05
2018-12-07T13:55:32.234Z,2.22
2018-12-07T13:58:01.059Z,2.20
2018-12-07T14:00:29.947Z,2.62
2018-12-07T14:02:58.781Z,1.77
2018-12-07T14:05:32.196Z,1.90
2018-12-07T14:07:58.983Z,1.92
2018-12-07T14:10:27.667Z,1.87
2018-12-07T14:12:56.238Z,1.30
2018-12-07T14:15:24.790Z,1.70
2018-12-07T14:17:53.288Z,1.85
2018-12-07T14:20:21.958Z,2.25
2018-12-07T14:22:50.903Z,1.90
2018-12-07T14:25:19.576Z,2.60
2018-12-07T14:27:53.035Z,2.10
2018-12-07T14:30:22.181Z,1.95
2018-12-07T14:32:51.342Z,2.70
2018-12-07T14:35:20.136Z,2.25
2018-12-07T14:37:48.817Z,2.35
2018-12-07T14:40:20.236Z,2.22
2018-12-07T14:42:49.086Z,2.30
2018-12-07T14:45:18.314Z,1.92
2018-12-07T14:47:47.263Z,2.17
2018-12-07T14:50:15.919Z,1.82
2018-12-07T14:52:45.218Z,2.37
2018-12-07T14:55:14.247Z,1.62
2018-12-07T14:57:43.160Z,1.82
2018-12-07T15:00:12.141Z,2.30
2018-12-07T15:02:41.513Z,2.10
2018-12-07T15:05:10.368Z,1.72
2018-12-07T15:07:39.121Z,1.87
2018-12-07T15:10:09.556Z,2.10
2018-12-07T15:12:38.125Z,1.92
2018-12-07T15:15:07.450Z,1.77
2018-12-07T15:17:36.028Z,1.62
2018-12-07T15:20:05.670Z,1.75
2018-12-07T15:22:34.775Z,1.85
2018-12-07T15:25:03.430Z,1.87
2018-12-07T15:27:32.708Z,1.62
2018-12-07T15:30:02.117Z,1.90
2018-12-07T15:32:30.738Z,2.62
2018-12-07T15:34:59.706Z,2.55
2018-12-07T15:37:28.436Z,2.72
2018-12-07T15:39:57.165Z,1.95
2018-12-07T15:42:25.899Z,2.52
2018-12-07T15:44:54.874Z,2.35
2018-12-07T15:47:23.580Z,2.72
2018-12-07T15:49:52.351Z,3.65
2018-12-07T15:52:21.093Z,3.67
2018-12-07T15:54:50.921Z,3.25
2018-12-07T15:57:20.436Z,3.70
2018-12-07T15:59:49.155Z,2.90
2018-12-07T16:02:18.456Z,2.22
2018-12-07T16:04:47.137Z,2.83
2018-12-07T16:07:16.009Z,1.98
2018-12-07T16:09:45.315Z,2.02
2018-12-07T16:12:13.973Z,1.92
2018-12-07T16:14:43.223Z,2.35
2018-12-07T16:17:19.002Z,2.08
2018-12-07T16:19:48.008Z,1.90
2018-12-07T16:22:16.774Z,2.20
2018-12-07T16:24:45.706Z,2.72
2018-12-07T16:27:14.823Z,2.22
2018-12-07T16:29:43.798Z,2.60
2018-12-07T16:32:13.393Z,2.30
2018-12-07T16:34:42.139Z,2.60
2018-12-07T16:37:10.639Z,2.22
2018-12-07T16:39:39.956Z,1.77
2018-12-07T16:42:08.616Z,2.17
2018-12-07T16:44:37.504Z,2.20
2018-12-07T16:47:06.686Z,2.25
2018-12-07T16:49:35.589Z,2.22
2018-12-07T16:52:04.768Z,2.45
2018-12-07T16:54:34.234Z,2.37
2018-12-07T16:57:03.368Z,2.17
2018-12-07T16:59:32.957Z,2.67
2018-12-07T17:02:02.219Z,2.30
2018-12-07T17:04:30.891Z,2.95
2018-12-07T17:06:59.697Z,1.75
2018-12-07T17:09:29.044Z,1.82
2018-12-07T17:11:57.911Z,1.70
2018-12-07T17:14:26.764Z,2.10
2018-12-07T17:16:56.217Z,2.35
2018-12-07T17:19:25.174Z,1.62
2018-12-07T17:21:53.891Z,2.55
2018-12-07T17:24:22.941Z,2.17
2018-12-07T17:26:51.702Z,1.65
2018-12-07T17:29:20.319Z,2.08
2018-12-07T17:31:49.473Z,2.62
2018-12-07T17:34:18.641Z,2.65
2018-12-07T17:36:48.049Z,2.72
2018-12-07T17:39:16.962Z,2.42
2018-12-07T17:41:45.720Z,2.67
2018-12-07T17:44:15.608Z,2.05
2018-12-07T17:46:45.129Z,2.80
2018-12-07T17:49:14.989Z,2.83
2018-12-07T17:51:44.007Z,3.60
2018-12-07T17:54:14.257Z,2.77
2018-12-07T17:56:43.012Z,2.87
2018-12-07T17:59:11.726Z,2.67
2018-12-07T18:01:41.078Z,2.45
2018-12-07T18:04:10.394Z,1.57
2018-12-07T18:06:39.191Z,1.87
2018-12-07T18:09:09.406Z,1.52
2018-12-07T18:11:37.998Z,2.17
2018-12-07T18:14:06.746Z,2.20
2018-12-07T18:16:35.735Z,2.77
2018-12-07T18:19:05.700Z,2.17
2018-12-07T18:21:34.626Z,2.12
2018-12-07T18:24:03.190Z,2.65
2018-12-07T18:26:32.172Z,3.27
2018-12-07T18:29:00.856Z,2.85
2018-12-07T18:31:29.352Z,3.10
2018-12-07T18:33:57.927Z,2.40
2018-12-07T18:36:26.458Z,2.77
2018-12-07T18:38:56.024Z,3.92
2018-12-07T18:41:24.771Z,3.27
2018-12-07T18:43:53.322Z,3.52
2018-12-07T18:46:22.137Z,3.30
2018-12-07T18:48:50.967Z,3.52
2018-12-07T18:51:20.359Z,2.50
2018-12-07T18:53:49.216Z,3.47
2018-12-07T18:56:18.240Z,3.02
2018-12-07T18:58:47.230Z,3.75
2018-12-07T19:01:15.965Z,3.42
2018-12-07T19:03:44.794Z,4.00
2018-12-07T19:06:13.696Z,3.60
2018-12-07T19:08:42.880Z,3.58
2018-12-07T19:11:13.470Z,2.92
2018-12-07T19:13:42.377Z,3.25
2018-12-07T19:16:11.630Z,3.33
2018-12-07T19:18:40.396Z,3.95
2018-12-07T19:21:09.472Z,3.50
2018-12-07T19:23:38.496Z,3.70
2018-12-07T19:26:07.211Z,3.15
2018-12-07T19:28:35.929Z,3.67
2018-12-07T19:31:04.711Z,3.75
2018-12-07T19:33:33.308Z,3.15
2018-12-07T19:36:02.013Z,3.17
2018-12-07T19:38:30.771Z,2.67
2018-12-07T19:41:00.109Z,3.33
2018-12-07T19:43:28.819Z,2.70
2018-12-07T19:45:59.240Z,3.37
2018-12-07T19:48:27.830Z,2.77
2018-12-07T19:50:58.444Z,3.52
2018-12-07T19:53:27.086Z,3.27
2018-12-07T19:55:56.189Z,2.20
2018-12-07T19:58:25.580Z,2.50
2018-12-07T20:00:54.760Z,2.20
2018-12-07T20:03:23.652Z,2.20
2018-12-07T20:05:52.702Z,2.37
2018-12-07T20:08:22.520Z,2.22
2018-12-07T20:10:52.375Z,2.52
2018-12-07T20:13:21.055Z,1.70
2018-12-07T20:15:49.576Z,3.37
2018-12-07T20:18:18.873Z,3.22
2018-12-07T20:20:47.587Z,3.12
2018-12-07T20:23:17.154Z,3.15
2018-12-07T20:25:46.418Z,3.02
2018-12-07T20:28:16.660Z,2.77
2018-12-07T20:30:45.309Z,2.60
2018-12-07T20:33:14.119Z,3.12
2018-12-07T20:35:42.762Z,3.00
2018-12-07T20:38:11.543Z,2.98
2018-12-07T20:40:40.891Z,2.47
2018-12-07T20:43:10.190Z,2.87
2018-12-07T20:45:39.896Z,2.25
2018-12-07T20:48:08.940Z,3.12
2018-12-07T20:50:37.735Z,3.35
2018-12-07T20:53:06.338Z,3.17
2018-12-07T20:55:35.108Z,3.12
2018-12-07T20:58:04.153Z,3.45
2018-12-07T21:00:33.367Z,3.27
2018-12-07T21:03:02.502Z,3.22
2018-12-07T21:05:59.174Z,3.75
2018-12-07T21:09:37.608Z,2.72
2018-12-07T21:14:19.561Z,2.75
2018-12-07T21:17:04.014Z,2.47
2018-12-07T21:19:33.819Z,2.17
2018-12-07T21:22:02.931Z,2.30
2018-12-07T21:24:31.727Z,2.62
2018-12-07T21:27:00.586Z,2.70
2018-12-07T21:29:29.654Z,2.20
2018-12-07T21:32:00.023Z,3.60
2018-12-07T21:36:46.324Z,1.65
2018-12-07T21:39:21.736Z,2.45
2018-12-07T21:41:50.918Z,1.80
2018-12-07T21:44:20.148Z,2.22
2018-12-07T21:46:49.559Z,2.30
2018-12-07T21:49:18.990Z,2.30
2018-12-07T21:51:55.640Z,2.40
2018-12-07T21:54:24.433Z,2.55
2018-12-07T21:56:53.169Z,2.83
2018-12-07T21:59:21.907Z,2.45
2018-12-07T22:01:51.863Z,2.33
2018-12-07T22:04:21.407Z,3.45
2018-12-07T22:06:57.919Z,2.05
2018-12-07T22:09:27.226Z,2.20
2018-12-07T22:11:56.783Z,2.30
2018-12-07T22:14:25.725Z,2.72
2018-12-07T22:16:55.136Z,3.10
2018-12-07T22:19:23.857Z,2.90
2018-12-07T22:21:52.505Z,2.33
2018-12-07T22:24:21.578Z,3.15
2018-12-07T22:26:50.629Z,2.10
2018-12-07T22:29:20.835Z,1.95
2018-12-07T22:31:50.182Z,3.05
2018-12-07T22:34:20.191Z,2.95
2018-12-07T22:36:50.319Z,2.77
2018-12-07T22:39:19.448Z,2.45
2018-12-07T22:41:48.595Z,2.70
2018-12-07T22:44:18.216Z,3.08
2018-12-07T22:46:47.189Z,2.55
2018-12-07T22:49:17.734Z,2.83
2018-12-07T22:51:46.528Z,3.22
2018-12-07T22:54:15.232Z,2.70
2018-12-07T22:56:44.094Z,3.17
2018-12-07T22:59:13.026Z,3.12
2018-12-07T23:01:48.607Z,3.27
2018-12-07T23:04:17.890Z,2.65
2018-12-07T23:06:47.782Z,2.95
2018-12-07T23:09:16.738Z,2.95
2018-12-07T23:11:45.376Z,2.52
2018-12-07T23:14:15.467Z,2.77
2018-12-07T23:16:44.118Z,2.30
2018-12-07T23:19:12.547Z,2.27
2018-12-07T23:21:41.113Z,3.58
2018-12-07T23:24:09.619Z,3.10
2018-12-07T23:26:38.415Z,3.55
2018-12-07T23:29:19.461Z,3.30
2018-12-07T23:31:48.251Z,2.17
2018-12-07T23:34:17.908Z,3.47
2018-12-07T23:36:49.537Z,2.92
2018-12-07T23:39:18.331Z,3.12
2018-12-07T23:41:47.100Z,3.35
2018-12-07T23:44:16.406Z,2.60
2018-12-07T23:46:46.157Z,2.85
2018-12-07T23:49:15.554Z,2.40
2018-12-07T23:51:46.539Z,2.80
2018-12-07T23:54:15.202Z,2.95
2018-12-07T23:56:44.072Z,2.47
2018-12-07T23:59:13.034Z,2.87
